sensor_id;sensor_type;location;lat;lon;timestamp;temperature;humidity
11597;DHT22;5854;48.072;16.286;2023-03-15T00:01:26;9.10;47.20
11597;DHT22;5854;48.072;16.286;2023-03-15T00:04:11;9.20;48.20
11597;DHT22;5854;48.072;16.286;2023-03-15T00:07:13;9.00;44.50
11597;DHT22;5854;48.072;16.286;2023-03-15T00:10:16;9.10;48.00
11597;DHT22;5854;48.072;16.286;2023-03-15T00:13:27;9.10;46.00
11597;DHT22;5854;48.072;16.286;2023-03-15T00:16:36;9.00;44.70
11597;DHT22;5854;48.072;16.286;2023-03-15T00:19:33;9.10;46.60
11597;DHT22;5854;48.072;16.286;2023-03-15T00:22:35;9.00;46.40
11597;DHT22;5854;48.072;16.286;2023-03-15T00:25:47;8.90;46.00
11597;DHT22;5854;48.072;16.286;2023-03-15T00:28:42;8.90;46.40
11597;DHT22;5854;48.072;16.286;2023-03-15T00:31:40;9.00;47.00
11597;DHT22;5854;48.072;16.286;2023-03-15T00:34:37;9.00;49.10
11597;DHT22;5854;48.072;16.286;2023-03-15T00:37:40;9.00;49.20
11597;DHT22;5854;48.072;16.286;2023-03-15T00:40:46;8.90;46.20
11597;DHT22;5854;48.072;16.286;2023-03-15T00:43:45;8.90;49.00
11597;DHT22;5854;48.072;16.286;2023-03-15T00:46:45;8.90;46.20
11597;DHT22;5854;48.072;16.286;2023-03-15T00:49:44;8.80;48.10
11597;DHT22;5854;48.072;16.286;2023-03-15T00:52:44;8.80;46.00
11597;DHT22;5854;48.072;16.286;2023-03-15T00:55:46;8.70;46.30
11597;DHT22;5854;48.072;16.286;2023-03-15T00:58:45;8.80;48.20
11597;DHT22;5854;48.072;16.286;2023-03-15T01:01:57;8.80;46.30
11597;DHT22;5854;48.072;16.286;2023-03-15T01:05:06;8.70;47.30
11597;DHT22;5854;48.072;16.286;2023-03-15T01:08:09;8.80;49.20
11597;DHT22;5854;48.072;16.286;2023-03-15T01:11:02;8.70;48.60
11597;DHT22;5854;48.072;16.286;2023-03-15T01:13:49;8.70;46.10
11597;DHT22;5854;48.072;16.286;2023-03-15T01:16:51;8.80;50.60
11597;DHT22;5854;48.072;16.286;2023-03-15T01:19:56;8.80;48.00
11597;DHT22;5854;48.072;16.286;2023-03-15T01:22:49;8.60;46.40
11597;DHT22;5854;48.072;16.286;2023-03-15T01:25:49;8.60;49.40
11597;DHT22;5854;48.072;16.286;2023-03-15T01:28:45;8.60;50.60
11597;DHT22;5854;48.072;16.286;2023-03-15T01:31:52;8.70;46.30
11597;DHT22;5854;48.072;16.286;2023-03-15T01:34:54;8.60;49.30
11597;DHT22;5854;48.072;16.286;2023-03-15T01:37:52;8.70;48.30
11597;DHT22;5854;48.072;16.286;2023-03-15T01:40:54;8.70;48.40
11597;DHT22;5854;48.072;16.286;2023-03-15T01:44:02;8.80;46.70
11597;DHT22;5854;48.072;16.286;2023-03-15T01:47:12;8.60;46.40
11597;DHT22;5854;48.072;16.286;2023-03-15T01:50:27;8.60;49.30
11597;DHT22;5854;48.072;16.286;2023-03-15T01:53:39;8.60;49.10
11597;DHT22;5854;48.072;16.286;2023-03-15T01:56:41;8.60;49.00
11597;DHT22;5854;48.072;16.286;2023-03-15T01:59:39;8.60;50.10
11597;DHT22;5854;48.072;16.286;2023-03-15T02:02:32;8.50;48.50
11597;DHT22;5854;48.072;16.286;2023-03-15T02:05:22;8.60;49.60
11597;DHT22;5854;48.072;16.286;2023-03-15T02:08:44;8.50;47.80
11597;DHT22;5854;48.072;16.286;2023-03-15T02:11:47;8.50;50.40
11597;DHT22;5854;48.072;16.286;2023-03-15T02:14:43;8.50;50.80
11597;DHT22;5854;48.072;16.286;2023-03-15T02:17:46;8.30;51.10
11597;DHT22;5854;48.072;16.286;2023-03-15T02:20:49;8.10;51.20
11597;DHT22;5854;48.072;16.286;2023-03-15T02:23:58;8.20;52.70
11597;DHT22;5854;48.072;16.286;2023-03-15T02:30:36;8.20;52.30
11597;DHT22;5854;48.072;16.286;2023-03-15T02:33:39;8.20;53.00
11597;DHT22;5854;48.072;16.286;2023-03-15T02:36:39;8.10;52.90
11597;DHT22;5854;48.072;16.286;2023-03-15T02:39:41;8.00;52.50
11597;DHT22;5854;48.072;16.286;2023-03-15T02:42:37;7.80;53.50
11597;DHT22;5854;48.072;16.286;2023-03-15T02:46:00;7.80;53.90
11597;DHT22;5854;48.072;16.286;2023-03-15T02:49:07;7.80;54.00
11597;DHT22;5854;48.072;16.286;2023-03-15T02:51:57;7.70;54.90
11597;DHT22;5854;48.072;16.286;2023-03-15T02:54:38;7.70;54.20
11597;DHT22;5854;48.072;16.286;2023-03-15T02:57:31;7.60;54.50
11597;DHT22;5854;48.072;16.286;2023-03-15T03:00:40;7.80;54.90
11597;DHT22;5854;48.072;16.286;2023-03-15T03:03:46;7.80;54.30
11597;DHT22;5854;48.072;16.286;2023-03-15T03:06:52;7.60;54.30
11597;DHT22;5854;48.072;16.286;2023-03-15T03:09:50;7.60;55.30
11597;DHT22;5854;48.072;16.286;2023-03-15T03:12:42;7.70;55.40
11597;DHT22;5854;48.072;16.286;2023-03-15T03:15:44;7.50;55.00
11597;DHT22;5854;48.072;16.286;2023-03-15T03:19:22;7.60;55.00
11597;DHT22;5854;48.072;16.286;2023-03-15T03:22:23;7.70;54.70
11597;DHT22;5854;48.072;16.286;2023-03-15T03:25:25;7.50;54.70
11597;DHT22;5854;48.072;16.286;2023-03-15T03:28:21;7.40;55.00
11597;DHT22;5854;48.072;16.286;2023-03-15T03:31:27;7.50;56.00
11597;DHT22;5854;48.072;16.286;2023-03-15T03:34:36;7.40;54.90
11597;DHT22;5854;48.072;16.286;2023-03-15T03:37:40;7.40;54.80
11597;DHT22;5854;48.072;16.286;2023-03-15T03:40:38;7.30;56.10
11597;DHT22;5854;48.072;16.286;2023-03-15T03:43:28;7.40;54.80
11597;DHT22;5854;48.072;16.286;2023-03-15T03:46:32;7.40;55.90
11597;DHT22;5854;48.072;16.286;2023-03-15T03:49:46;7.20;55.80
11597;DHT22;5854;48.072;16.286;2023-03-15T03:53:04;7.20;55.90
11597;DHT22;5854;48.072;16.286;2023-03-15T03:56:05;7.50;54.90
11597;DHT22;5854;48.072;16.286;2023-03-15T03:59:14;7.50;54.30
11597;DHT22;5854;48.072;16.286;2023-03-15T04:02:10;7.60;55.40
11597;DHT22;5854;48.072;16.286;2023-03-15T04:05:03;7.50;53.50
11597;DHT22;5854;48.072;16.286;2023-03-15T04:07:37;7.30;54.50
11597;DHT22;5854;48.072;16.286;2023-03-15T04:10:10;7.20;55.40
11597;DHT22;5854;48.072;16.286;2023-03-15T04:12:52;7.30;56.30
11597;DHT22;5854;48.072;16.286;2023-03-15T04:15:32;7.10;55.50
11597;DHT22;5854;48.072;16.286;2023-03-15T04:18:04;7.00;55.30
11597;DHT22;5854;48.072;16.286;2023-03-15T04:20:50;7.00;56.30
11597;DHT22;5854;48.072;16.286;2023-03-15T04:23:21;7.10;56.70
11597;DHT22;5854;48.072;16.286;2023-03-15T04:25:53;7.20;55.80
11597;DHT22;5854;48.072;16.286;2023-03-15T04:28:24;7.10;55.50
11597;DHT22;5854;48.072;16.286;2023-03-15T04:30:55;7.20;55.90
11597;DHT22;5854;48.072;16.286;2023-03-15T04:33:31;7.10;56.30
11597;DHT22;5854;48.072;16.286;2023-03-15T04:36:09;7.10;56.30
11597;DHT22;5854;48.072;16.286;2023-03-15T04:38:58;7.10;56.70
11597;DHT22;5854;48.072;16.286;2023-03-15T04:41:38;6.90;55.30
11597;DHT22;5854;48.072;16.286;2023-03-15T04:44:15;6.80;55.50
11597;DHT22;5854;48.072;16.286;2023-03-15T04:46:50;6.80;54.30
11597;DHT22;5854;48.072;16.286;2023-03-15T04:49:29;6.70;57.10
11597;DHT22;5854;48.072;16.286;2023-03-15T04:52:01;7.00;55.00
11597;DHT22;5854;48.072;16.286;2023-03-15T04:54:34;6.90;56.00
11597;DHT22;5854;48.072;16.286;2023-03-15T04:57:07;6.80;53.00
11597;DHT22;5854;48.072;16.286;2023-03-15T04:59:45;6.70;53.20
11597;DHT22;5854;48.072;16.286;2023-03-15T05:03:28;6.50;51.40
11597;DHT22;5854;48.072;16.286;2023-03-15T05:06:28;6.50;55.30
11597;DHT22;5854;48.072;16.286;2023-03-15T05:09:24;6.70;51.50
11597;DHT22;5854;48.072;16.286;2023-03-15T05:12:21;6.90;54.70
11597;DHT22;5854;48.072;16.286;2023-03-15T05:15:19;7.00;51.30
11597;DHT22;5854;48.072;16.286;2023-03-15T05:18:37;6.80;50.30
11597;DHT22;5854;48.072;16.286;2023-03-15T05:21:48;6.60;53.00
11597;DHT22;5854;48.072;16.286;2023-03-15T05:24:57;6.70;53.60
11597;DHT22;5854;48.072;16.286;2023-03-15T05:28:04;6.80;54.50
11597;DHT22;5854;48.072;16.286;2023-03-15T05:31:07;6.60;49.30
11597;DHT22;5854;48.072;16.286;2023-03-15T05:34:31;6.10;50.70
11597;DHT22;5854;48.072;16.286;2023-03-15T05:37:18;6.20;48.20
11597;DHT22;5854;48.072;16.286;2023-03-15T05:40:11;6.40;56.30
11597;DHT22;5854;48.072;16.286;2023-03-15T05:42:55;6.30;48.90
11597;DHT22;5854;48.072;16.286;2023-03-15T05:46:06;6.40;54.00
11597;DHT22;5854;48.072;16.286;2023-03-15T05:48:55;6.50;54.00
11597;DHT22;5854;48.072;16.286;2023-03-15T05:55:02;6.50;48.30
11597;DHT22;5854;48.072;16.286;2023-03-15T05:57:41;6.40;53.90
11597;DHT22;5854;48.072;16.286;2023-03-15T06:00:27;6.50;47.80
11597;DHT22;5854;48.072;16.286;2023-03-15T06:03:04;6.50;48.60
11597;DHT22;5854;48.072;16.286;2023-03-15T06:05:55;6.60;52.90
11597;DHT22;5854;48.072;16.286;2023-03-15T06:08:43;6.80;51.60
11597;DHT22;5854;48.072;16.286;2023-03-15T06:11:30;6.90;50.10
11597;DHT22;5854;48.072;16.286;2023-03-15T06:14:14;6.70;49.90
11597;DHT22;5854;48.072;16.286;2023-03-15T06:16:58;6.60;51.70
11597;DHT22;5854;48.072;16.286;2023-03-15T06:19:44;6.60;46.70
11597;DHT22;5854;48.072;16.286;2023-03-15T06:22:25;6.60;50.70
11597;DHT22;5854;48.072;16.286;2023-03-15T06:25:16;6.80;48.60
11597;DHT22;5854;48.072;16.286;2023-03-15T06:28:01;6.80;48.60
11597;DHT22;5854;48.072;16.286;2023-03-15T06:30:47;6.70;46.60
11597;DHT22;5854;48.072;16.286;2023-03-15T06:33:35;6.70;46.50
11597;DHT22;5854;48.072;16.286;2023-03-15T06:36:36;6.50;49.40
11597;DHT22;5854;48.072;16.286;2023-03-15T06:42:22;6.60;46.70
11597;DHT22;5854;48.072;16.286;2023-03-15T06:45:11;6.70;43.10
11597;DHT22;5854;48.072;16.286;2023-03-15T06:48:01;6.40;42.30
11597;DHT22;5854;48.072;16.286;2023-03-15T06:50:56;6.40;45.70
11597;DHT22;5854;48.072;16.286;2023-03-15T06:53:41;6.40;44.80
11597;DHT22;5854;48.072;16.286;2023-03-15T06:56:57;6.30;41.90
11597;DHT22;5854;48.072;16.286;2023-03-15T07:00:05;6.40;47.30
11597;DHT22;5854;48.072;16.286;2023-03-15T07:03:01;6.60;45.50
11597;DHT22;5854;48.072;16.286;2023-03-15T07:05:45;6.60;43.30
11597;DHT22;5854;48.072;16.286;2023-03-15T07:09:03;6.60;46.70
11597;DHT22;5854;48.072;16.286;2023-03-15T07:11:59;6.80;41.60
11597;DHT22;5854;48.072;16.286;2023-03-15T07:14:38;7.00;40.60
11597;DHT22;5854;48.072;16.286;2023-03-15T07:17:50;6.90;41.00
11597;DHT22;5854;48.072;16.286;2023-03-15T07:20:41;6.90;41.20
11597;DHT22;5854;48.072;16.286;2023-03-15T07:23:18;6.80;39.80
11597;DHT22;5854;48.072;16.286;2023-03-15T07:26:02;6.80;38.10
11597;DHT22;5854;48.072;16.286;2023-03-15T07:28:53;6.90;42.80
11597;DHT22;5854;48.072;16.286;2023-03-15T07:31:32;6.70;41.90
11597;DHT22;5854;48.072;16.286;2023-03-15T07:34:17;6.80;42.80
11597;DHT22;5854;48.072;16.286;2023-03-15T07:37:09;7.10;42.00
11597;DHT22;5854;48.072;16.286;2023-03-15T07:40:00;7.20;38.50
11597;DHT22;5854;48.072;16.286;2023-03-15T07:42:40;7.20;42.40
11597;DHT22;5854;48.072;16.286;2023-03-15T07:45:16;7.10;38.40
11597;DHT22;5854;48.072;16.286;2023-03-15T07:47:54;7.20;41.90
11597;DHT22;5854;48.072;16.286;2023-03-15T07:50:36;7.20;40.30
11597;DHT22;5854;48.072;16.286;2023-03-15T07:53:10;7.10;43.00
11597;DHT22;5854;48.072;16.286;2023-03-15T07:55:47;7.10;43.50
11597;DHT22;5854;48.072;16.286;2023-03-15T07:58:17;7.10;40.20
11597;DHT22;5854;48.072;16.286;2023-03-15T08:00:46;7.20;37.40
11597;DHT22;5854;48.072;16.286;2023-03-15T08:03:16;7.20;38.80
11597;DHT22;5854;48.072;16.286;2023-03-15T08:05:47;7.10;37.60
11597;DHT22;5854;48.072;16.286;2023-03-15T08:08:16;6.90;37.50
11597;DHT22;5854;48.072;16.286;2023-03-15T08:10:47;7.10;43.70
11597;DHT22;5854;48.072;16.286;2023-03-15T08:13:18;7.10;40.60
11597;DHT22;5854;48.072;16.286;2023-03-15T08:15:54;7.30;38.90
11597;DHT22;5854;48.072;16.286;2023-03-15T08:18:30;7.30;44.00
11597;DHT22;5854;48.072;16.286;2023-03-15T08:21:08;7.30;40.20
11597;DHT22;5854;48.072;16.286;2023-03-15T08:23:40;7.40;39.30
11597;DHT22;5854;48.072;16.286;2023-03-15T08:26:15;7.60;40.90
11597;DHT22;5854;48.072;16.286;2023-03-15T08:28:49;7.60;41.70
11597;DHT22;5854;48.072;16.286;2023-03-15T08:31:25;7.50;43.50
11597;DHT22;5854;48.072;16.286;2023-03-15T08:33:58;7.40;40.70
11597;DHT22;5854;48.072;16.286;2023-03-15T08:36:31;7.50;39.40
11597;DHT22;5854;48.072;16.286;2023-03-15T08:39:02;7.70;40.20
11597;DHT22;5854;48.072;16.286;2023-03-15T08:41:38;7.80;39.60
11597;DHT22;5854;48.072;16.286;2023-03-15T08:44:11;7.70;38.40
11597;DHT22;5854;48.072;16.286;2023-03-15T08:46:42;7.80;39.70
11597;DHT22;5854;48.072;16.286;2023-03-15T08:49:18;7.80;40.40
11597;DHT22;5854;48.072;16.286;2023-03-15T08:51:52;7.80;40.00
11597;DHT22;5854;48.072;16.286;2023-03-15T08:54:25;7.80;35.30
11597;DHT22;5854;48.072;16.286;2023-03-15T08:56:58;7.80;38.30
11597;DHT22;5854;48.072;16.286;2023-03-15T08:59:27;7.80;39.30
11597;DHT22;5854;48.072;16.286;2023-03-15T09:02:02;7.80;42.00
11597;DHT22;5854;48.072;16.286;2023-03-15T09:04:33;7.80;37.80
11597;DHT22;5854;48.072;16.286;2023-03-15T09:07:07;7.90;43.90
11597;DHT22;5854;48.072;16.286;2023-03-15T09:09:43;7.90;42.10
11597;DHT22;5854;48.072;16.286;2023-03-15T09:12:17;8.10;37.80
11597;DHT22;5854;48.072;16.286;2023-03-15T09:14:52;8.00;38.50
11597;DHT22;5854;48.072;16.286;2023-03-15T09:17:27;8.10;38.10
11597;DHT22;5854;48.072;16.286;2023-03-15T09:20:02;8.20;36.70
11597;DHT22;5854;48.072;16.286;2023-03-15T09:22:51;8.30;39.70
11597;DHT22;5854;48.072;16.286;2023-03-15T09:25:30;8.30;40.60
11597;DHT22;5854;48.072;16.286;2023-03-15T09:28:07;8.10;40.70
11597;DHT22;5854;48.072;16.286;2023-03-15T09:30:46;7.80;37.40
11597;DHT22;5854;48.072;16.286;2023-03-15T09:33:21;7.80;40.20
11597;DHT22;5854;48.072;16.286;2023-03-15T09:36:01;7.90;38.50
11597;DHT22;5854;48.072;16.286;2023-03-15T09:38:35;8.00;42.10
11597;DHT22;5854;48.072;16.286;2023-03-15T09:41:17;8.00;41.30
11597;DHT22;5854;48.072;16.286;2023-03-15T09:44:07;7.90;38.00
11597;DHT22;5854;48.072;16.286;2023-03-15T09:47:04;7.90;41.00
11597;DHT22;5854;48.072;16.286;2023-03-15T09:49:51;7.90;41.20
11597;DHT22;5854;48.072;16.286;2023-03-15T09:52:36;8.00;40.70
11597;DHT22;5854;48.072;16.286;2023-03-15T09:55:20;8.10;42.00
11597;DHT22;5854;48.072;16.286;2023-03-15T09:57:59;7.90;36.70
11597;DHT22;5854;48.072;16.286;2023-03-15T10:00:37;7.60;38.30
11597;DHT22;5854;48.072;16.286;2023-03-15T10:03:19;7.50;40.90
11597;DHT22;5854;48.072;16.286;2023-03-15T10:05:55;7.60;39.80
11597;DHT22;5854;48.072;16.286;2023-03-15T10:08:30;7.80;40.50
11597;DHT22;5854;48.072;16.286;2023-03-15T10:11:11;7.90;41.30
11597;DHT22;5854;48.072;16.286;2023-03-15T10:13:59;8.20;39.70
11597;DHT22;5854;48.072;16.286;2023-03-15T10:16:43;8.20;40.90
11597;DHT22;5854;48.072;16.286;2023-03-15T10:19:29;8.00;39.00
11597;DHT22;5854;48.072;16.286;2023-03-15T10:22:21;7.70;43.60
11597;DHT22;5854;48.072;16.286;2023-03-15T10:25:00;7.70;38.20
11597;DHT22;5854;48.072;16.286;2023-03-15T10:27:40;7.70;39.30
11597;DHT22;5854;48.072;16.286;2023-03-15T10:30:16;7.70;42.50
11597;DHT22;5854;48.072;16.286;2023-03-15T10:32:55;7.70;39.30
11597;DHT22;5854;48.072;16.286;2023-03-15T10:35:34;7.80;39.90
11597;DHT22;5854;48.072;16.286;2023-03-15T10:38:14;8.00;40.00
11597;DHT22;5854;48.072;16.286;2023-03-15T10:40:48;8.10;40.00
11597;DHT22;5854;48.072;16.286;2023-03-15T10:43:23;8.20;37.10
11597;DHT22;5854;48.072;16.286;2023-03-15T10:46:03;8.20;38.20
11597;DHT22;5854;48.072;16.286;2023-03-15T10:48:39;8.30;36.20
11597;DHT22;5854;48.072;16.286;2023-03-15T10:51:30;8.30;40.50
11597;DHT22;5854;48.072;16.286;2023-03-15T10:54:15;8.30;41.90
11597;DHT22;5854;48.072;16.286;2023-03-15T10:56:55;8.30;37.50
11597;DHT22;5854;48.072;16.286;2023-03-15T10:59:34;8.30;31.90
11597;DHT22;5854;48.072;16.286;2023-03-15T11:02:19;8.30;38.70
11597;DHT22;5854;48.072;16.286;2023-03-15T11:05:13;8.50;39.30
11597;DHT22;5854;48.072;16.286;2023-03-15T11:07:59;8.60;37.20
11597;DHT22;5854;48.072;16.286;2023-03-15T11:10:37;8.60;38.70
11597;DHT22;5854;48.072;16.286;2023-03-15T11:13:22;8.50;39.00
11597;DHT22;5854;48.072;16.286;2023-03-15T11:16:22;8.40;41.40
11597;DHT22;5854;48.072;16.286;2023-03-15T11:19:06;8.40;40.00
11597;DHT22;5854;48.072;16.286;2023-03-15T11:22:00;8.30;43.20
11597;DHT22;5854;48.072;16.286;2023-03-15T11:24:45;8.60;41.30
11597;DHT22;5854;48.072;16.286;2023-03-15T11:27:36;8.50;42.30
11597;DHT22;5854;48.072;16.286;2023-03-15T11:30:24;8.60;41.20
11597;DHT22;5854;48.072;16.286;2023-03-15T11:33:06;8.60;43.20
11597;DHT22;5854;48.072;16.286;2023-03-15T11:35:50;8.60;42.10
11597;DHT22;5854;48.072;16.286;2023-03-15T11:38:34;8.70;42.20
11597;DHT22;5854;48.072;16.286;2023-03-15T11:41:22;8.70;41.10
11597;DHT22;5854;48.072;16.286;2023-03-15T11:44:12;8.80;39.90
11597;DHT22;5854;48.072;16.286;2023-03-15T11:47:02;8.60;42.10
11597;DHT22;5854;48.072;16.286;2023-03-15T11:49:56;8.50;40.10
11597;DHT22;5854;48.072;16.286;2023-03-15T11:52:33;8.50;42.20
11597;DHT22;5854;48.072;16.286;2023-03-15T11:55:23;8.80;42.00
11597;DHT22;5854;48.072;16.286;2023-03-15T11:58:32;9.10;41.40
11597;DHT22;5854;48.072;16.286;2023-03-15T12:01:11;9.00;38.40
11597;DHT22;5854;48.072;16.286;2023-03-15T12:04:35;8.70;39.20
11597;DHT22;5854;48.072;16.286;2023-03-15T12:10:47;8.60;40.00
11597;DHT22;5854;48.072;16.286;2023-03-15T12:13:31;8.70;40.30
11597;DHT22;5854;48.072;16.286;2023-03-15T12:16:06;8.80;39.20
11597;DHT22;5854;48.072;16.286;2023-03-15T12:18:49;8.90;37.50
11597;DHT22;5854;48.072;16.286;2023-03-15T12:21:32;9.00;39.30
11597;DHT22;5854;48.072;16.286;2023-03-15T12:24:15;9.10;35.50
11597;DHT22;5854;48.072;16.286;2023-03-15T12:26:58;9.20;38.30
11597;DHT22;5854;48.072;16.286;2023-03-15T12:29:59;9.10;38.40
11597;DHT22;5854;48.072;16.286;2023-03-15T12:32:51;8.80;39.70
11597;DHT22;5854;48.072;16.286;2023-03-15T12:35:28;8.80;39.00
11597;DHT22;5854;48.072;16.286;2023-03-15T12:38:11;8.90;40.30
11597;DHT22;5854;48.072;16.286;2023-03-15T12:40:51;8.90;41.40
11597;DHT22;5854;48.072;16.286;2023-03-15T12:43:38;8.80;42.00
11597;DHT22;5854;48.072;16.286;2023-03-15T12:49:33;9.00;42.80
11597;DHT22;5854;48.072;16.286;2023-03-15T12:52:26;9.20;42.30
11597;DHT22;5854;48.072;16.286;2023-03-15T12:55:12;9.20;39.50
11597;DHT22;5854;48.072;16.286;2023-03-15T12:57:48;9.30;40.60
11597;DHT22;5854;48.072;16.286;2023-03-15T13:00:22;9.50;39.10
11597;DHT22;5854;48.072;16.286;2023-03-15T13:03:03;9.50;37.70
11597;DHT22;5854;48.072;16.286;2023-03-15T13:05:46;9.30;39.20
11597;DHT22;5854;48.072;16.286;2023-03-15T13:08:22;9.40;39.90
11597;DHT22;5854;48.072;16.286;2023-03-15T13:10:55;9.70;41.10
11597;DHT22;5854;48.072;16.286;2023-03-15T13:13:47;9.80;35.90
11597;DHT22;5854;48.072;16.286;2023-03-15T13:16:32;10.00;39.80
11597;DHT22;5854;48.072;16.286;2023-03-15T13:19:15;9.60;38.70
11597;DHT22;5854;48.072;16.286;2023-03-15T13:22:03;9.60;39.30
11597;DHT22;5854;48.072;16.286;2023-03-15T13:24:47;9.60;40.50
11597;DHT22;5854;48.072;16.286;2023-03-15T13:27:37;9.40;39.30
11597;DHT22;5854;48.072;16.286;2023-03-15T13:30:36;9.50;42.00
11597;DHT22;5854;48.072;16.286;2023-03-15T13:33:25;9.30;40.90
11597;DHT22;5854;48.072;16.286;2023-03-15T13:36:10;9.60;40.20
11597;DHT22;5854;48.072;16.286;2023-03-15T13:38:52;9.40;37.50
11597;DHT22;5854;48.072;16.286;2023-03-15T13:41:32;9.30;40.00
11597;DHT22;5854;48.072;16.286;2023-03-15T13:44:21;9.20;38.50
11597;DHT22;5854;48.072;16.286;2023-03-15T13:47:00;9.10;39.60
11597;DHT22;5854;48.072;16.286;2023-03-15T13:49:42;9.20;40.90
11597;DHT22;5854;48.072;16.286;2023-03-15T13:52:21;9.20;41.10
11597;DHT22;5854;48.072;16.286;2023-03-15T13:55:01;9.30;41.10
11597;DHT22;5854;48.072;16.286;2023-03-15T13:57:32;9.20;39.20
11597;DHT22;5854;48.072;16.286;2023-03-15T14:00:17;9.20;39.90
11597;DHT22;5854;48.072;16.286;2023-03-15T14:02:56;9.30;39.60
11597;DHT22;5854;48.072;16.286;2023-03-15T14:05:46;9.30;38.50
11597;DHT22;5854;48.072;16.286;2023-03-15T14:08:24;9.30;38.90
11597;DHT22;5854;48.072;16.286;2023-03-15T14:11:10;9.30;42.20
11597;DHT22;5854;48.072;16.286;2023-03-15T14:14:25;9.40;38.70
11597;DHT22;5854;48.072;16.286;2023-03-15T14:17:19;9.40;39.80
11597;DHT22;5854;48.072;16.286;2023-03-15T14:20:07;9.20;43.00
11597;DHT22;5854;48.072;16.286;2023-03-15T14:22:46;9.10;39.30
11597;DHT22;5854;48.072;16.286;2023-03-15T14:25:23;8.90;42.90
11597;DHT22;5854;48.072;16.286;2023-03-15T14:28:03;9.00;43.40
11597;DHT22;5854;48.072;16.286;2023-03-15T14:30:41;9.20;43.40
11597;DHT22;5854;48.072;16.286;2023-03-15T14:33:34;9.10;44.10
11597;DHT22;5854;48.072;16.286;2023-03-15T14:36:24;9.20;41.30
11597;DHT22;5854;48.072;16.286;2023-03-15T14:39:11;9.60;42.30
11597;DHT22;5854;48.072;16.286;2023-03-15T14:41:57;9.60;38.70
11597;DHT22;5854;48.072;16.286;2023-03-15T14:44:46;9.70;39.60
11597;DHT22;5854;48.072;16.286;2023-03-15T14:47:20;9.50;40.80
11597;DHT22;5854;48.072;16.286;2023-03-15T14:50:17;9.30;38.20
11597;DHT22;5854;48.072;16.286;2023-03-15T14:53:01;9.30;42.70
11597;DHT22;5854;48.072;16.286;2023-03-15T14:55:37;9.20;38.60
11597;DHT22;5854;48.072;16.286;2023-03-15T14:58:13;9.20;41.20
11597;DHT22;5854;48.072;16.286;2023-03-15T15:00:49;9.10;40.70
11597;DHT22;5854;48.072;16.286;2023-03-15T15:03:33;9.10;40.00
11597;DHT22;5854;48.072;16.286;2023-03-15T15:06:19;9.30;40.40
11597;DHT22;5854;48.072;16.286;2023-03-15T15:09:06;9.20;37.40
11597;DHT22;5854;48.072;16.286;2023-03-15T15:11:50;9.20;38.70
11597;DHT22;5854;48.072;16.286;2023-03-15T15:14:23;9.20;42.30
11597;DHT22;5854;48.072;16.286;2023-03-15T15:17:03;9.10;40.40
11597;DHT22;5854;48.072;16.286;2023-03-15T15:19:37;9.10;43.90
11597;DHT22;5854;48.072;16.286;2023-03-15T15:22:24;9.00;38.90
11597;DHT22;5854;48.072;16.286;2023-03-15T15:25:00;9.00;43.40
11597;DHT22;5854;48.072;16.286;2023-03-15T15:27:38;8.90;43.40
11597;DHT22;5854;48.072;16.286;2023-03-15T15:30:17;9.10;43.10
11597;DHT22;5854;48.072;16.286;2023-03-15T15:32:55;9.00;42.80
11597;DHT22;5854;48.072;16.286;2023-03-15T15:35:29;9.00;41.70
11597;DHT22;5854;48.072;16.286;2023-03-15T15:38:09;8.90;43.80
11597;DHT22;5854;48.072;16.286;2023-03-15T15:40:43;8.70;39.20
11597;DHT22;5854;48.072;16.286;2023-03-15T15:43:18;8.60;44.00
11597;DHT22;5854;48.072;16.286;2023-03-15T15:45:59;8.70;39.20
11597;DHT22;5854;48.072;16.286;2023-03-15T15:48:49;8.70;40.50
11597;DHT22;5854;48.072;16.286;2023-03-15T15:51:33;8.90;44.70
11597;DHT22;5854;48.072;16.286;2023-03-15T15:54:26;9.00;43.90
11597;DHT22;5854;48.072;16.286;2023-03-15T15:57:19;8.80;38.10
11597;DHT22;5854;48.072;16.286;2023-03-15T15:59:59;9.00;43.00
11597;DHT22;5854;48.072;16.286;2023-03-15T16:02:42;9.00;42.20
11597;DHT22;5854;48.072;16.286;2023-03-15T16:05:33;9.10;42.50
11597;DHT22;5854;48.072;16.286;2023-03-15T16:08:18;8.70;44.20
11597;DHT22;5854;48.072;16.286;2023-03-15T16:11:11;8.40;37.00
11597;DHT22;5854;48.072;16.286;2023-03-15T16:13:55;8.50;38.30
11597;DHT22;5854;48.072;16.286;2023-03-15T16:16:42;8.30;37.20
11597;DHT22;5854;48.072;16.286;2023-03-15T16:19:21;8.50;37.90
11597;DHT22;5854;48.072;16.286;2023-03-15T16:22:05;8.70;37.60
11597;DHT22;5854;48.072;16.286;2023-03-15T16:24:54;8.80;35.80
11597;DHT22;5854;48.072;16.286;2023-03-15T16:27:56;8.60;38.80
11597;DHT22;5854;48.072;16.286;2023-03-15T16:30:36;8.50;39.30
11597;DHT22;5854;48.072;16.286;2023-03-15T16:33:18;8.60;39.20
11597;DHT22;5854;48.072;16.286;2023-03-15T16:35:54;8.50;37.90
11597;DHT22;5854;48.072;16.286;2023-03-15T16:38:40;8.50;36.70
11597;DHT22;5854;48.072;16.286;2023-03-15T16:41:21;8.70;39.70
11597;DHT22;5854;48.072;16.286;2023-03-15T16:44:08;8.50;38.90
11597;DHT22;5854;48.072;16.286;2023-03-15T16:46:59;8.60;41.70
11597;DHT22;5854;48.072;16.286;2023-03-15T16:49:36;8.70;40.30
11597;DHT22;5854;48.072;16.286;2023-03-15T16:52:21;8.50;41.60
11597;DHT22;5854;48.072;16.286;2023-03-15T16:55:05;9.00;41.50
11597;DHT22;5854;48.072;16.286;2023-03-15T16:57:53;8.90;38.70
11597;DHT22;5854;48.072;16.286;2023-03-15T17:00:41;8.70;41.00
11597;DHT22;5854;48.072;16.286;2023-03-15T17:03:14;8.80;40.90
11597;DHT22;5854;48.072;16.286;2023-03-15T17:05:46;8.40;40.10
11597;DHT22;5854;48.072;16.286;2023-03-15T17:08:22;8.40;42.10
11597;DHT22;5854;48.072;16.286;2023-03-15T17:11:05;8.30;39.30
11597;DHT22;5854;48.072;16.286;2023-03-15T17:13:45;8.40;40.50
11597;DHT22;5854;48.072;16.286;2023-03-15T17:16:21;8.60;43.50
11597;DHT22;5854;48.072;16.286;2023-03-15T17:18:55;8.60;42.30
11597;DHT22;5854;48.072;16.286;2023-03-15T17:21:31;8.40;43.50
11597;DHT22;5854;48.072;16.286;2023-03-15T17:24:12;8.30;43.30
11597;DHT22;5854;48.072;16.286;2023-03-15T17:26:50;8.50;43.70
11597;DHT22;5854;48.072;16.286;2023-03-15T17:29:34;8.30;42.40
11597;DHT22;5854;48.072;16.286;2023-03-15T17:32:19;8.30;44.30
11597;DHT22;5854;48.072;16.286;2023-03-15T17:35:00;8.10;44.20
11597;DHT22;5854;48.072;16.286;2023-03-15T17:37:37;7.80;42.60
11597;DHT22;5854;48.072;16.286;2023-03-15T17:40:22;7.80;42.50
11597;DHT22;5854;48.072;16.286;2023-03-15T17:43:10;7.70;42.80
11597;DHT22;5854;48.072;16.286;2023-03-15T17:45:54;8.00;43.20
11597;DHT22;5854;48.072;16.286;2023-03-15T17:48:41;7.90;42.90
11597;DHT22;5854;48.072;16.286;2023-03-15T17:51:26;8.00;41.10
11597;DHT22;5854;48.072;16.286;2023-03-15T17:54:24;8.10;43.20
11597;DHT22;5854;48.072;16.286;2023-03-15T17:57:05;8.00;43.60
11597;DHT22;5854;48.072;16.286;2023-03-15T17:59:49;8.10;43.30
11597;DHT22;5854;48.072;16.286;2023-03-15T18:02:43;8.20;43.60
11597;DHT22;5854;48.072;16.286;2023-03-15T18:05:33;8.20;41.70
11597;DHT22;5854;48.072;16.286;2023-03-15T18:08:23;8.30;43.70
11597;DHT22;5854;48.072;16.286;2023-03-15T18:11:01;8.20;43.80